Time;durP1;ratioP1;P1;durP2;ratioP2;P2;SDS_P1;SDS_P2;PMS_P1;PMS_P2;Temp;Humidity;BMP_temperature;BMP_pressure;BME280_temperature;BME280_humidity;BME280_pressure;Samples;Min_cycle;Max_cycle;Signal;HPM_P1;HPM_P2
2022/04/12 00:02:09;;;;;;;5.97;4.85;;;;;;;5.04;100.00;99593.35;1680274;85;21060;-81
2022/04/12 00:04:36;;;;;;;6.90;5.20;;;;;;;5.04;100.00;99580.92;1660393;85;21036;-80
2022/04/12 00:07:07;;;;;;;5.33;4.45;;;;;;;4.99;100.00;99579.11;1602473;87;21105;-80
2022/04/12 00:09:45;;;;;;;6.53;4.67;;;;;;;4.97;100.00;99588.70;1651391;85;21070;-79
2022/04/12 00:12:15;;;;;;;5.78;5.03;;;;;;;4.95;100.00;99610.74;1645496;86;21046;-80
2022/04/12 00:14:44;;;;;;;5.55;4.85;;;;;;;4.96;100.00;99616.27;1674028;85;21688;-82
2022/04/12 00:19:59;;;;;;;7.03;6.05;;;;;;;4.97;100.00;99590.83;1673437;85;21260;-83
2022/04/12 00:22:27;;;;;;;6.03;5.22;;;;;;;4.96;100.00;99591.76;1673776;85;21015;-81
2022/04/12 00:25:00;;;;;;;5.20;4.47;;;;;;;4.94;100.00;99576.03;1673932;85;21062;-81
2022/04/12 00:27:28;;;;;;;5.03;4.30;;;;;;;4.90;100.00;99579.28;1673446;85;21063;-81
2022/04/12 00:29:56;;;;;;;6.05;4.87;;;;;;;4.86;100.00;99585.56;1674582;85;21134;-82
2022/04/12 00:32:26;;;;;;;5.55;4.92;;;;;;;4.83;100.00;99589.66;1675565;85;21486;-81
2022/04/12 00:34:54;;;;;;;4.97;4.40;;;;;;;4.81;100.00;99581.19;1655290;86;21047;-83
2022/04/12 00:37:21;;;;;;;7.12;4.97;;;;;;;4.78;100.00;99587.39;1715130;83;21564;-82
2022/04/12 00:39:49;;;;;;;6.20;4.60;;;;;;;4.79;100.00;99590.78;1656481;84;21071;-81
2022/04/12 00:42:16;;;;;;;5.37;4.87;;;;;;;4.79;100.00;99574.02;1660546;84;21609;-81
2022/04/12 00:44:43;;;;;;;6.00;4.70;;;;;;;4.79;100.00;99568.86;1714834;82;21842;-82
2022/04/12 00:47:10;;;;;;;5.50;4.55;;;;;;;4.79;100.00;99556.80;1719478;82;21018;-80
2022/04/12 00:49:38;;;;;;;5.95;5.10;;;;;;;4.79;100.00;99552.09;1689814;83;21106;-80
2022/04/12 00:52:09;;;;;;;5.53;4.85;;;;;;;4.79;100.00;99541.33;1719682;83;21034;-80
2022/04/12 00:54:38;;;;;;;5.47;4.72;;;;;;;4.77;100.00;99548.33;1720111;83;21562;-83
2022/04/12 00:57:06;;;;;;;5.87;4.65;;;;;;;4.76;100.00;99547.97;1719891;83;21181;-80
2022/04/12 00:59:35;;;;;;;5.35;4.65;;;;;;;4.75;100.00;99547.61;1719836;83;21048;-79
2022/04/12 01:02:08;;;;;;;6.12;4.60;;;;;;;4.73;100.00;99536.56;1719840;83;21041;-81
2022/04/12 01:04:36;;;;;;;4.03;3.60;;;;;;;4.73;100.00;99533.98;1719634;83;21018;-79
2022/04/12 01:07:06;;;;;;;4.28;3.77;;;;;;;4.73;100.00;99541.72;1718982;82;21029;-79
2022/04/12 01:09:35;;;;;;;4.72;3.98;;;;;;;4.73;100.00;99538.69;1719117;83;21484;-80
2022/04/12 01:12:09;;;;;;;4.33;3.90;;;;;;;4.73;100.00;99530.95;1719483;83;21081;-78
2022/04/12 01:14:34;;;;;;;3.98;3.58;;;;;;;4.73;100.00;99515.92;1715813;83;21073;-80
2022/04/12 01:17:07;;;;;;;4.47;3.75;;;;;;;4.71;100.00;99521.20;1719899;83;21069;-82
2022/04/12 01:19:34;;;;;;;4.78;3.75;;;;;;;4.71;100.00;99528.13;1719855;83;21022;-79
2022/04/12 01:22:06;;;;;;;3.60;3.30;;;;;;;4.69;100.00;99519.18;1719807;83;21353;-79
2022/04/12 01:24:34;;;;;;;3.92;3.62;;;;;;;4.69;100.00;99532.55;1718640;83;21586;-79
2022/04/12 01:27:15;;;;;;;;;;;;;;;;;;;;;
2022/04/12 01:29:36;;;;;;;3.75;3.35;;;;;;;4.69;100.00;99530.78;1740670;82;21028;-79
2022/04/12 01:32:07;;;;;;;3.90;3.50;;;;;;;4.70;100.00;99520.84;1744652;81;21035;-81
2022/04/12 01:34:36;;;;;;;3.55;3.25;;;;;;;4.70;100.00;99533.73;1744842;81;21159;-78
2022/04/12 01:37:05;;;;;;;3.83;3.42;;;;;;;4.69;100.00;99532.08;1745174;81;21012;-80
2022/04/12 01:39:33;;;;;;;3.62;3.10;;;;;;;4.69;100.00;99533.37;1758994;80;21110;-79
2022/04/12 01:42:00;;;;;;;3.60;3.20;;;;;;;4.67;100.00;99528.80;1745504;81;21668;-79
2022/04/12 01:44:29;;;;;;;4.47;3.52;;;;;;;4.66;100.00;99514.70;1749812;81;21519;-79
2022/04/12 01:46:57;;;;;;;3.77;3.20;;;;;;;4.65;100.00;99513.05;1769457;81;21759;-80
2022/04/12 01:49:26;;;;;;;4.42;3.98;;;;;;;4.64;100.00;99526.89;1769412;81;21527;-79
2022/04/12 01:51:54;;;;;;;4.17;3.58;;;;;;;4.64;100.00;99540.59;1769529;81;21000;-78
2022/04/12 01:54:22;;;;;;;3.70;3.40;;;;;;;4.65;100.00;99545.28;1769439;81;20967;-78
2022/04/12 01:56:50;;;;;;;4.40;3.65;;;;;;;4.66;100.00;99553.38;1765869;80;21429;-80
2022/04/12 01:59:18;;;;;;;4.75;3.37;;;;;;;4.66;100.00;99548.22;1769522;81;21165;-82
2022/04/12 02:01:45;;;;;;;3.52;3.20;;;;;;;4.68;100.00;99543.80;1769243;81;21059;-84
2022/04/12 02:04:12;;;;;;;4.28;3.37;;;;;;;4.66;100.00;99528.44;1769272;81;21058;-82
2022/04/12 02:06:40;;;;;;;6.45;3.30;;;;;;;4.65;100.00;99509.17;1769229;81;21022;-82
2022/04/12 02:09:07;;;;;;;4.45;3.60;;;;;;;4.62;100.00;99513.27;1744542;80;21024;-82
2022/04/12 02:11:35;;;;;;;4.33;3.90;;;;;;;4.60;100.00;99514.67;1683913;85;21302;-79
2022/04/12 02:14:02;;;;;;;3.60;3.30;;;;;;;4.60;100.00;99528.02;1678686;85;21055;-78
2022/04/12 02:16:33;;;;;;;4.50;3.80;;;;;;;4.59;100.00;99527.20;1676818;85;21649;-79
2022/04/12 02:19:00;;;;;;;3.80;3.40;;;;;;;4.58;100.00;99530.23;1694121;83;21021;-80
2022/04/12 02:21:29;;;;;;;4.42;3.60;;;;;;;4.60;100.00;99518.98;1683990;84;21561;-79
2022/04/12 02:23:57;;;;;;;4.00;3.60;;;;;;;4.60;100.00;99521.13;1678731;85;21265;-81
2022/04/12 02:26:25;;;;;;;3.92;3.52;;;;;;;4.57;100.00;99513.58;1678852;85;21025;-79
2022/04/12 02:28:52;;;;;;;3.85;3.42;;;;;;;4.56;100.00;99503.75;1679062;85;21124;-79
2022/04/12 02:31:19;;;;;;;3.60;3.30;;;;;;;4.55;100.00;99505.96;1679377;85;21044;-79
2022/04/12 02:33:46;;;;;;;3.47;3.17;;;;;;;4.53;100.00;99497.94;1678879;85;21024;-80
2022/04/12 02:36:13;;;;;;;3.98;3.50;;;;;;;4.50;100.00;99494.30;1679019;85;21229;-79
2022/04/12 02:38:42;;;;;;;3.80;3.40;;;;;;;4.49;100.00;99498.61;1678729;85;21069;-79
2022/04/12 02:41:11;;;;;;;4.30;3.87;;;;;;;4.49;100.00;99499.09;1681472;85;21107;-79
2022/04/12 02:43:38;;;;;;;5.30;4.50;;;;;;;4.50;100.00;99499.45;1723901;83;21063;-82
2022/04/12 02:46:07;;;;;;;3.67;3.37;;;;;;;4.50;100.00;99495.59;1691643;84;21055;-79
2022/04/12 02:48:34;;;;;;;4.20;3.80;;;;;;;4.50;100.00;99498.98;1714675;83;21119;-78
2022/04/12 02:51:04;;;;;;;4.20;3.80;;;;;;;4.49;100.00;99498.61;1681857;83;21034;-78
2022/04/12 02:53:31;;;;;;;4.10;3.70;;;;;;;4.49;100.00;99502.96;1683047;85;21510;-81
2022/04/12 02:55:59;;;;;;;4.30;3.90;;;;;;;4.46;100.00;99504.00;1674848;85;21483;-79
2022/04/12 02:58:28;;;;;;;5.22;3.17;;;;;;;4.47;100.00;99513.39;1666750;86;21079;-82
2022/04/12 03:00:58;;;;;;;3.55;3.08;;;;;;;4.47;100.00;99511.25;1705601;82;21524;-79
2022/04/12 03:03:25;;;;;;;3.77;3.42;;;;;;;4.45;100.00;99513.13;1705209;83;21095;-83
2022/04/12 03:05:54;;;;;;;3.37;3.08;;;;;;;4.41;100.00;99499.15;1701206;82;22014;-80
2022/04/12 03:08:22;;;;;;;3.05;2.77;;;;;;;4.37;100.00;99498.17;1711002;83;21050;-78
2022/04/12 03:10:51;;;;;;;3.22;2.83;;;;;;;4.33;100.00;99491.11;1712249;83;21109;-79
2022/04/12 03:13:19;;;;;;;3.92;2.98;;;;;;;4.28;100.00;99497.48;1712328;83;21093;-79
2022/04/12 03:15:46;;;;;;;3.08;2.80;;;;;;;4.27;100.00;99506.98;1712288;83;21023;-78
2022/04/12 03:18:16;;;;;;;3.35;2.83;;;;;;;4.28;100.00;99527.97;1712768;83;21071;-78
2022/04/12 03:20:44;;;;;;;2.87;2.67;;;;;;;4.28;100.00;99531.84;1680625;84;20984;-79
2022/04/12 03:23:11;;;;;;;3.10;2.83;;;;;;;4.27;100.00;99532.76;1680702;85;21153;-78
2022/04/12 03:25:39;;;;;;;2.55;2.35;;;;;;;4.27;100.00;99536.63;1651402;86;21243;-78
2022/04/12 03:28:07;;;;;;;2.62;2.42;;;;;;;4.27;100.00;99521.16;1651251;86;21019;-77
2022/04/12 03:30:34;;;;;;;2.52;2.33;;;;;;;4.27;100.00;99521.16;1651348;86;21078;-77
2022/04/12 03:33:02;;;;;;;2.58;2.37;;;;;;;4.26;100.00;99527.23;1651139;85;21050;-78
2022/04/12 03:35:32;;;;;;;2.45;2.25;;;;;;;4.23;100.00;99516.67;1649503;86;21209;-79
2022/04/12 03:38:02;;;;;;;3.37;2.60;;;;;;;4.23;100.00;99517.12;1660126;86;21161;-78
2022/04/12 03:40:33;;;;;;;2.77;2.10;;;;;;;4.23;100.00;99510.67;1651704;85;21134;-79
2022/04/12 03:43:04;;;;;;;2.90;2.60;;;;;;;4.21;100.00;99509.50;1693573;84;21058;-79
2022/04/12 03:45:34;;;;;;;2.65;2.45;;;;;;;4.22;100.00;99516.75;1706795;84;21115;-79
2022/04/12 03:48:01;;;;;;;2.83;2.40;;;;;;;4.19;100.00;99522.94;1706989;84;21060;-80
2022/04/12 03:50:31;;;;;;;2.30;2.10;;;;;;;4.17;100.00;99531.70;1707166;84;21140;-78
2022/04/12 03:52:58;;;;;;;2.40;2.02;;;;;;;4.16;100.00;99548.93;1706590;84;21056;-80
2022/04/12 03:55:31;;;;;;;3.37;2.20;;;;;;;4.17;100.00;99563.91;1731550;82;21597;-77
2022/04/12 03:58:01;;;;;;;2.35;2.15;;;;;;;4.18;100.00;99569.44;1737315;82;21076;-79
2022/04/12 04:00:31;;;;;;;2.80;2.30;;;;;;;4.19;100.00;99551.77;1737159;82;21134;-81
2022/04/12 04:02:58;;;;;;;2.60;1.98;;;;;;;4.20;100.00;99553.42;1737154;82;21230;-78
2022/04/12 04:05:26;;;;;;;3.37;2.37;;;;;;;4.17;100.00;99544.11;1737348;82;21016;-80
2022/04/12 04:07:54;;;;;;;2.72;2.10;;;;;;;4.15;100.00;99528.39;1718181;81;21574;-77
2022/04/12 04:10:22;;;;;;;2.33;2.05;;;;;;;4.11;100.00;99532.92;1706696;83;21080;-79
2022/04/12 04:12:51;;;;;;;3.10;2.58;;;;;;;4.08;100.00;99514.63;1706702;84;21111;-78
2022/04/12 04:15:18;;;;;;;2.05;1.85;;;;;;;4.05;100.00;99526.41;1683992;84;21804;-78
2022/04/12 04:17:48;;;;;;;1.82;1.72;;;;;;;4.06;100.00;99547.87;1706962;84;21067;-78
2022/04/12 04:20:19;;;;;;;1.80;1.70;;;;;;;4.07;100.00;99548.23;1708512;82;20984;-79
2022/04/12 04:22:46;;;;;;;2.00;1.70;;;;;;;4.08;100.00;99541.69;1737723;82;21053;-78
2022/04/12 04:25:16;;;;;;;1.85;1.67;;;;;;;4.08;100.00;99539.59;1737505;82;21612;-82
2022/04/12 04:27:45;;;;;;;2.05;1.80;;;;;;;4.07;100.00;99543.08;1737364;82;21083;-79
2022/04/12 04:30:14;;;;;;;1.75;1.57;;;;;;;4.00;100.00;99543.13;1731431;82;21613;-80
2022/04/12 04:32:42;;;;;;;1.30;1.20;;;;;;;3.91;100.00;99529.91;1675487;83;21049;-78
2022/04/12 04:35:10;;;;;;;1.75;1.50;;;;;;;3.84;100.00;99536.83;1706107;82;21552;-80
2022/04/12 04:37:58;;;;;;;1.50;1.40;;;;;;;3.75;100.00;99533.92;1715696;82;21094;-79
2022/04/12 04:40:25;;;;;;;1.60;1.50;;;;;;;3.69;100.00;99538.18;1714874;82;21266;-78
2022/04/12 04:42:53;;;;;;;1.67;1.55;;;;;;;3.64;100.00;99522.21;1737111;82;21125;-80
2022/04/12 04:45:21;;;;;;;2.22;1.37;;;;;;;3.61;100.00;99526.25;1737189;81;21019;-79
2022/04/12 04:47:56;;;;;;;1.50;1.27;;;;;;;3.56;100.00;99522.69;1737370;81;21118;-78
2022/04/12 04:50:32;;;;;;;1.70;1.60;;;;;;;3.48;100.00;99523.16;1736318;82;21584;-78
2022/04/12 04:53:06;;;;;;;1.50;1.40;;;;;;;3.42;100.00;99516.30;1710947;82;21162;-80
2022/04/12 04:55:36;;;;;;;2.27;1.57;;;;;;;3.38;100.00;99507.95;1711567;83;21560;-79
2022/04/12 04:58:05;;;;;;;;;;;;;;;3.37;100.00;99512.72;1709356;82;21145;-78
2022/04/12 05:00:34;;;;;;;1.98;1.47;;;;;;;3.38;100.00;99508.39;1705621;84;20134;-78
2022/04/12 05:03:04;;;;;;;4.25;1.90;;;;;;;3.36;100.00;99514.93;1705298;84;21544;-79
2022/04/12 05:05:32;;;;;;;1.50;1.40;;;;;;;3.34;100.00;99519.34;1706081;84;21612;-80
2022/04/12 05:08:02;;;;;;;1.52;1.30;;;;;;;3.31;100.00;99523.41;1696829;82;21669;-81
2022/04/12 05:10:35;;;;;;;1.77;1.67;;;;;;;3.27;100.00;99530.50;1698287;82;21175;-79
2022/04/12 05:13:05;;;;;;;2.65;2.10;;;;;;;3.28;100.00;99536.02;1708024;82;47435;-79
2022/04/12 05:15:34;;;;;;;2.55;1.80;;;;;;;3.29;100.00;99529.91;1768002;80;21042;-78
2022/04/12 05:18:02;;;;;;;2.37;1.60;;;;;;;3.30;100.00;99530.77;1779700;80;21104;-78
2022/04/12 05:20:32;;;;;;;2.62;1.80;;;;;;;3.27;100.00;99536.93;1740473;80;21019;-78
2022/04/12 05:22:59;;;;;;;1.40;1.30;;;;;;;3.26;100.00;99531.86;1716059;82;21111;-79
2022/04/12 05:25:26;;;;;;;2.67;1.87;;;;;;;3.23;100.00;99528.20;1683838;83;21067;-78
2022/04/12 05:27:53;;;;;;;1.57;1.37;;;;;;;3.22;100.00;99525.27;1679554;85;21724;-79
2022/04/12 05:30:21;;;;;;;1.42;1.12;;;;;;;3.17;100.00;99537.13;1678740;85;21161;-84
2022/04/12 05:32:48;;;;;;;1.77;1.10;;;;;;;3.17;100.00;99537.13;1678994;85;21068;-81
2022/04/12 05:35:15;;;;;;;1.75;1.12;;;;;;;3.13;100.00;99539.06;1684408;84;21832;-81
2022/04/12 05:37:48;;;;;;;4.37;1.27;;;;;;;3.09;100.00;99532.91;1684365;83;21039;-81
2022/04/12 05:40:18;;;;;;;1.27;1.17;;;;;;;3.09;100.00;99532.43;1681438;84;21082;-79
2022/04/12 05:42:46;;;;;;;2.10;1.30;;;;;;;3.09;100.00;99522.14;1709125;83;21847;-79
2022/04/12 05:45:15;;;;;;;2.12;1.00;;;;;;;3.06;100.00;99527.50;1661942;84;21054;-78
2022/04/12 05:47:51;;;;;;;2.12;0.80;;;;;;;3.06;100.00;99527.50;1693635;84;21066;-80
2022/04/12 05:50:25;;;;;;;2.00;0.80;;;;;;;3.05;100.00;99544.29;1720548;83;21045;-82
2022/04/12 05:52:54;;;;;;;2.90;0.90;;;;;;;3.04;100.00;99545.23;1775868;80;21014;-79
2022/04/12 05:55:26;;;;;;;2.65;0.60;;;;;;;3.00;100.00;99557.45;1760294;80;21530;-80
2022/04/12 05:58:03;;;;;;;1.15;0.90;;;;;;;3.02;100.00;99565.06;1741556;80;21560;-78
2022/04/12 06:00:34;;;;;;;3.55;0.90;;;;;;;3.01;100.00;99565.52;1740863;80;21118;-81
2022/04/12 06:03:05;;;;;;;1.20;1.00;;;;;;;3.03;100.00;99569.30;1741379;80;21282;-80
2022/04/12 06:05:32;;;;;;;1.87;1.10;;;;;;;3.03;100.00;99572.69;1740890;80;21055;-80
2022/04/12 06:08:00;;;;;;;1.20;1.10;;;;;;;3.03;100.00;99570.58;1731934;80;23300;-81
2022/04/12 06:10:27;;;;;;;2.05;1.05;;;;;;;3.03;100.00;99567.54;1737775;80;21043;-79
2022/04/12 06:12:55;;;;;;;0.95;0.75;;;;;;;3.01;100.00;99566.80;1762479;80;21082;-79
2022/04/12 06:15:22;;;;;;;1.75;0.95;;;;;;;2.98;100.00;99578.57;1751394;80;21079;-79
2022/04/12 06:17:51;;;;;;;1.82;1.02;;;;;;;2.96;100.00;99582.97;1742392;80;21038;-79
2022/04/12 06:20:20;;;;;;;0.88;0.75;;;;;;;2.96;100.00;99600.98;1717583;80;21384;-80
2022/04/12 06:22:47;;;;;;;1.12;0.78;;;;;;;2.96;100.00;99600.98;1736499;80;21046;-78
2022/04/12 06:25:20;;;;;;;1.07;0.90;;;;;;;2.93;100.00;99612.72;1742135;80;21513;-80
2022/04/12 06:27:50;;;;;;;1.00;0.70;;;;;;;2.91;100.00;99590.15;1743364;80;21569;-81
2022/04/12 06:30:26;;;;;;;;;;;;;;;2.88;100.00;99602.73;1745286;80;21019;-83
2022/04/12 06:32:55;;;;;;;1.05;0.80;;;;;;;2.89;100.00;99588.94;1744538;80;20182;-79
2022/04/12 06:35:23;;;;;;;1.02;0.80;;;;;;;2.87;100.00;99594.65;1741392;80;21040;-80
2022/04/12 06:37:53;;;;;;;1.35;0.78;;;;;;;2.83;100.00;99598.30;1741142;80;21099;-78
2022/04/12 06:40:22;;;;;;;1.32;0.65;;;;;;;2.82;100.00;99600.50;1738322;80;21679;-82
2022/04/12 06:42:51;;;;;;;0.82;0.70;;;;;;;2.79;100.00;99599.42;1716968;80;21022;-78
2022/04/12 06:45:20;;;;;;;1.02;0.65;;;;;;;2.76;100.00;99604.28;1739625;80;21030;-81
2022/04/12 06:47:54;;;;;;;1.25;0.90;;;;;;;2.77;100.00;99607.67;1728457;81;21047;-78
2022/04/12 06:50:22;;;;;;;1.62;0.90;;;;;;;2.75;100.00;99615.48;1674606;83;21074;-80
2022/04/12 06:52:50;;;;;;;0.98;0.60;;;;;;;2.73;100.00;99616.02;1680557;84;21095;-78
2022/04/12 06:55:19;;;;;;;0.45;0.45;;;;;;;2.74;100.00;99616.84;1679526;84;21024;-78
2022/04/12 06:57:47;;;;;;;1.10;0.80;;;;;;;2.71;100.00;99615.28;1702039;82;21609;-79
2022/04/12 07:00:17;;;;;;;0.85;0.80;;;;;;;2.70;100.00;99630.33;1677567;83;21067;-80
2022/04/12 07:02:50;;;;;;;0.93;0.60;;;;;;;2.69;100.00;99617.10;1705286;83;21056;-81
2022/04/12 07:05:15;;;;;;;1.45;0.50;;;;;;;2.66;100.00;99605.73;1707071;82;21075;-79
2022/04/12 07:07:43;;;;;;;2.17;0.70;;;;;;;2.61;100.00;99616.28;1687432;82;21586;-79
2022/04/12 07:10:16;;;;;;;0.70;0.60;;;;;;;2.60;100.00;99604.81;1683549;81;21027;-79
2022/04/12 07:12:44;;;;;;;;;;;;;;;2.55;100.00;99615.80;1691998;82;21657;-80
2022/04/12 07:15:13;;;;;;;2.40;0.55;;;;;;;2.55;100.00;99611.94;1732959;81;20205;-79
2022/04/12 07:17:44;;;;;;;0.68;0.68;;;;;;;2.50;100.00;99628.91;1696594;83;21082;-80
2022/04/12 07:20:12;;;;;;;1.50;0.55;;;;;;;2.51;100.00;99622.86;1692477;83;21042;-80
2022/04/12 07:22:41;;;;;;;1.52;0.90;;;;;;;2.52;100.00;99622.76;1708732;82;21137;-80
2022/04/12 07:25:09;;;;;;;0.90;0.80;;;;;;;2.53;100.00;99622.32;1702167;84;21063;-79
2022/04/12 07:27:38;;;;;;;2.58;1.10;;;;;;;2.55;100.00;99629.49;1701498;84;21344;-83
2022/04/12 07:30:07;;;;;;;1.17;1.07;;;;;;;2.55;100.00;99629.49;1700890;82;21081;-83
2022/04/12 07:32:36;;;;;;;0.80;0.80;;;;;;;2.58;100.00;99625.91;1674528;84;21015;-81
2022/04/12 07:35:05;;;;;;;2.85;1.35;;;;;;;2.56;100.00;99623.44;1704710;84;21097;-82
2022/04/12 07:37:33;;;;;;;1.20;1.07;;;;;;;2.58;100.00;99622.05;1764863;80;21036;-82
2022/04/12 07:40:09;;;;;;;1.72;0.90;;;;;;;2.58;100.00;99631.05;1751466;80;21077;-82
2022/04/12 07:42:37;;;;;;;0.62;0.50;;;;;;;2.58;100.00;99631.05;1711878;83;21031;-82
2022/04/12 07:45:05;;;;;;;2.83;0.80;;;;;;;2.59;100.00;99650.70;1701835;82;21717;-82
2022/04/12 07:47:35;;;;;;;1.98;0.70;;;;;;;2.58;100.00;99642.15;1725953;82;21906;-85
2022/04/12 07:50:05;;;;;;;1.27;0.60;;;;;;;2.58;100.00;99642.15;1691309;82;21104;-82
2022/04/12 07:52:32;;;;;;;1.37;0.60;;;;;;;2.57;100.00;99644.81;1679289;83;21623;-83
2022/04/12 07:55:00;;;;;;;0.93;0.55;;;;;;;2.57;100.00;99649.48;1716397;83;20997;-82
2022/04/12 07:57:29;;;;;;;1.05;0.70;;;;;;;2.62;100.00;99646.66;1740689;81;21017;-82
2022/04/12 07:59:57;;;;;;;0.72;0.60;;;;;;;2.65;100.00;99666.58;1743967;80;21575;-82
2022/04/12 08:02:25;;;;;;;0.50;0.50;;;;;;;2.65;100.00;99666.58;1720627;81;20938;-82
2022/04/12 08:04:54;;;;;;;2.45;0.70;;;;;;;2.65;100.00;99674.30;1727128;80;21037;-82
2022/04/12 08:07:21;;;;;;;2.35;1.22;;;;;;;2.65;100.00;99682.01;1705639;82;21012;-83
2022/04/12 08:09:49;;;;;;;1.27;0.93;;;;;;;2.68;100.00;99674.61;1712987;81;21268;-83
2022/04/12 08:12:16;;;;;;;2.45;1.40;;;;;;;2.75;100.00;99664.33;1730380;82;21127;-81
2022/04/12 08:14:45;;;;;;;1.10;0.80;;;;;;;2.77;100.00;99658.63;1707099;82;21317;-80
2022/04/12 08:17:13;;;;;;;2.27;1.55;;;;;;;2.77;100.00;99658.63;1700155;82;21077;-82
2022/04/12 08:19:41;;;;;;;0.65;0.40;;;;;;;2.83;100.00;99671.59;1750602;81;21093;-80
2022/04/12 08:22:09;;;;;;;2.35;0.80;;;;;;;2.83;100.00;99678.86;1748744;80;21080;-79
2022/04/12 08:24:37;;;;;;;1.27;0.90;;;;;;;2.86;100.00;99682.15;1737398;82;21358;-80
2022/04/12 08:27:04;;;;;;;0.57;0.57;;;;;;;2.90;100.00;99693.45;1742350;82;21051;-80
2022/04/12 08:29:33;;;;;;;0.60;0.60;;;;;;;2.93;100.00;99697.59;1746508;80;21046;-79
2022/04/12 08:32:02;;;;;;;0.60;0.50;;;;;;;2.97;100.00;99699.08;1729118;82;21023;-79
2022/04/12 08:34:30;;;;;;;3.10;2.60;;;;;;;2.97;100.00;99696.04;1727669;82;22070;-80
2022/04/12 08:36:58;;;;;;;0.33;0.33;;;;;;;2.97;100.00;99706.33;1733206;81;21074;-82
2022/04/12 08:39:25;;;;;;;1.32;0.55;;;;;;;2.98;100.00;99707.98;1676128;82;21102;-83
2022/04/12 08:41:57;;;;;;;0.60;0.60;;;;;;;3.03;100.00;99718.48;1725301;82;21042;-83
2022/04/12 08:44:25;;;;;;;;;;;;;;;3.03;100.00;99704.33;1723906;82;21095;-78
2022/04/12 08:46:56;;;;;;;0.40;0.40;;;;;;;3.04;100.00;99720.14;1731540;82;20172;-78
2022/04/12 08:49:24;;;;;;;0.95;0.65;;;;;;;3.04;100.00;99704.23;1738164;82;21054;-78
2022/04/12 08:51:53;;;;;;;1.35;0.68;;;;;;;3.09;100.00;99724.08;1738642;82;21109;-79
2022/04/12 08:54:21;;;;;;;1.00;0.90;;;;;;;3.13;100.00;99710.13;1730997;82;21439;-79
2022/04/12 08:56:52;;;;;;;0.75;0.70;;;;;;;3.19;100.00;99698.66;1681870;84;21638;-79
2022/04/12 08:59:20;;;;;;;0.77;0.40;;;;;;;3.19;100.00;99698.66;1688964;84;21091;-81
2022/04/12 09:01:50;;;;;;;0.57;0.50;;;;;;;3.19;100.00;99716.67;1687440;84;21237;-80
2022/04/12 09:04:20;;;;;;;0.70;0.70;;;;;;;3.21;100.00;99716.58;1675987;85;21056;-79
2022/04/12 09:06:53;;;;;;;0.50;0.40;;;;;;;3.23;100.00;99717.32;1674056;85;21095;-80
2022/04/12 09:09:25;;;;;;;0.78;0.42;;;;;;;3.25;100.00;99715.02;1654236;85;21075;-81
2022/04/12 09:12:02;;;;;;;0.98;0.62;;;;;;;3.29;100.00;99709.23;1655264;85;21080;-79
2022/04/12 09:14:54;;;;;;;0.62;0.50;;;;;;;3.33;100.00;99713.26;1664338;85;21175;-80
2022/04/12 09:17:36;;;;;;;0.40;0.40;;;;;;;3.38;100.00;99706.55;1660912;84;21630;-80
2022/04/12 09:20:07;;;;;;;2.35;0.60;;;;;;;3.42;100.00;99717.87;1672827;85;21021;-79
2022/04/12 09:22:35;;;;;;;2.20;0.60;;;;;;;3.41;100.00;99705.09;1651415;85;21561;-79
2022/04/12 09:25:06;;;;;;;0.60;0.60;;;;;;;3.41;100.00;99690.47;1670343;84;21669;-80
2022/04/12 09:27:36;;;;;;;0.42;0.42;;;;;;;3.46;100.00;99710.79;1675965;85;21240;-81
2022/04/12 09:30:11;;;;;;;0.40;0.40;;;;;;;3.47;100.00;99709.88;1669013;85;21124;-81
2022/04/12 09:32:44;;;;;;;0.37;0.37;;;;;;;3.45;100.00;99725.42;1664396;85;21581;-79
2022/04/12 09:35:14;;;;;;;0.85;0.40;;;;;;;3.45;100.00;99725.42;1672720;85;21137;-80
2022/04/12 09:37:44;;;;;;;0.60;0.50;;;;;;;3.51;100.00;99756.41;1665644;84;21571;-79
2022/04/12 09:40:18;;;;;;;0.80;0.40;;;;;;;3.55;100.00;99762.20;1663344;85;22044;-79
2022/04/12 09:43:00;;;;;;;0.40;0.40;;;;;;;3.51;100.00;99771.85;1679690;83;21089;-81
2022/04/12 09:45:30;;;;;;;;;;;;;;;3.51;100.00;99780.86;1711084;83;21020;-79
2022/04/12 09:48:04;;;;;;;0.70;0.60;;;;;;;3.53;100.00;99773.04;1671333;83;21239;-82
2022/04/12 09:50:33;;;;;;;0.40;0.40;;;;;;;3.55;100.00;99782.80;1722539;83;21103;-79
2022/04/12 09:53:03;;;;;;;0.50;0.50;;;;;;;3.57;100.00;99791.23;1712950;83;22158;-79
2022/04/12 09:55:44;;;;;;;0.98;0.70;;;;;;;3.58;100.00;99800.61;1712448;81;21599;-79
2022/04/12 09:58:16;;;;;;;0.60;0.57;;;;;;;3.59;100.00;99798.41;1709522;83;21098;-79
2022/04/12 10:00:47;;;;;;;0.40;0.40;;;;;;;3.60;100.00;99801.36;1711889;83;20976;-79
2022/04/12 10:03:20;;;;;;;0.85;0.60;;;;;;;3.60;100.00;99805.22;1726100;83;21074;-79
2022/04/12 10:05:48;;;;;;;0.70;0.60;;;;;;;3.63;100.00;99803.77;1693065;83;21212;-81
2022/04/12 10:08:18;;;;;;;0.65;0.60;;;;;;;3.68;100.00;99803.50;1699849;83;21158;-81
2022/04/12 10:10:46;;;;;;;1.22;1.07;;;;;;;3.69;100.00;99801.27;1731621;82;21313;-81
2022/04/12 10:13:26;;;;;;;;;;;;;;;;;;;;;
2022/04/12 10:15:45;;;;;;;0.70;0.70;;;;;;;3.69;100.00;99818.84;1708130;83;21050;-81
2022/04/12 10:18:20;;;;;;;0.90;0.78;;;;;;;3.71;100.00;99819.59;1667395;84;21641;-79
2022/04/12 10:20:48;;;;;;;2.80;0.60;;;;;;;3.71;100.00;99819.59;1723687;82;21074;-79
2022/04/12 10:23:21;;;;;;;0.80;0.78;;;;;;;3.71;100.00;99817.02;1692363;84;21048;-79
2022/04/12 10:25:59;;;;;;;1.20;1.10;;;;;;;3.72;100.00;99813.52;1708672;81;21065;-85
2022/04/12 10:28:30;;;;;;;1.47;1.22;;;;;;;3.79;100.00;99813.53;1720952;81;21093;-79
2022/04/12 10:31:17;;;;;;;2.27;1.17;;;;;;;3.84;100.00;99804.69;1756396;81;21155;-80
2022/04/12 10:34:09;;;;;;;0.80;0.80;;;;;;;3.86;100.00;99810.11;1744762;80;21041;-79
2022/04/12 10:37:04;;;;;;;3.98;1.60;;;;;;;3.88;100.00;99808.27;1742692;80;21618;-79
2022/04/12 10:39:32;;;;;;;;;;;;;;;3.90;100.00;99805.15;1760622;80;21080;-80
2022/04/12 10:42:09;;;;;;;1.12;0.95;;;;;;;3.95;100.00;99819.86;1738703;80;20234;-80
2022/04/12 10:44:42;;;;;;;0.60;0.60;;;;;;;3.95;100.00;99811.31;1748788;79;21955;-81
2022/04/12 10:47:27;;;;;;;1.50;1.00;;;;;;;3.96;100.00;99810.40;1736182;80;21552;-79
2022/04/12 10:50:01;;;;;;;0.93;0.70;;;;;;;4.02;100.00;99819.48;1716310;82;21317;-80
2022/04/12 10:52:46;;;;;;;1.45;1.20;;;;;;;4.04;100.00;99827.95;1714215;80;21030;-80
2022/04/12 10:55:26;;;;;;;1.30;1.10;;;;;;;4.03;100.00;99825.00;1676888;85;21344;-78
2022/04/12 10:57:59;;;;;;;0.57;0.57;;;;;;;4.04;100.00;99830.09;1724927;82;21489;-78
2022/04/12 11:00:30;;;;;;;0.50;0.50;;;;;;;4.04;100.00;99839.55;1712809;80;21084;-79
2022/04/12 11:03:00;;;;;;;0.60;0.57;;;;;;;4.05;100.00;99835.58;1712018;82;21089;-79
2022/04/12 11:05:45;;;;;;;0.72;0.50;;;;;;;4.05;100.00;99844.59;1738650;82;21029;-79
2022/04/12 11:08:24;;;;;;;0.90;0.80;;;;;;;4.06;100.00;99857.86;1738772;81;21039;-79
2022/04/12 11:10:59;;;;;;;0.68;0.60;;;;;;;4.10;100.00;99854.63;1742790;81;21062;-79
2022/04/12 11:13:35;;;;;;;0.78;0.70;;;;;;;4.13;100.00;99854.94;1743239;81;21678;-79
2022/04/12 11:16:09;;;;;;;1.30;0.60;;;;;;;4.13;100.00;99853.64;1729664;82;21127;-79
2022/04/12 11:18:52;;;;;;;0.55;0.55;;;;;;;4.08;100.00;99857.78;1698883;83;21151;-82
2022/04/12 11:21:25;;;;;;;0.80;0.80;;;;;;;4.08;100.00;99865.04;1668356;83;21090;-79
2022/04/12 11:24:07;;;;;;;1.10;1.00;;;;;;;4.08;100.00;99866.80;1723501;82;22544;-81
2022/04/12 11:26:47;;;;;;;1.02;0.80;;;;;;;4.10;100.00;99858.05;1739940;81;21051;-79
2022/04/12 11:29:19;;;;;;;0.68;0.50;;;;;;;4.14;100.00;99850.12;1744755;81;21061;-81
2022/04/12 11:31:53;;;;;;;1.92;1.30;;;;;;;4.13;100.00;99849.30;1744767;80;21067;-79
2022/04/12 11:34:27;;;;;;;1.52;1.07;;;;;;;4.15;100.00;99858.22;1730619;82;21984;-81
2022/04/12 11:36:57;;;;;;;1.92;1.22;;;;;;;4.17;100.00;99861.55;1707434;81;21337;-79
2022/04/12 11:39:28;;;;;;;1.65;1.00;;;;;;;4.18;100.00;99847.73;1734543;82;21022;-79
2022/04/12 11:42:03;;;;;;;1.35;0.80;;;;;;;4.16;100.00;99861.17;1686415;83;21600;-78
2022/04/12 11:44:33;;;;;;;0.80;0.80;;;;;;;4.11;100.00;99857.58;1681112;81;22501;-79
2022/04/12 11:47:04;;;;;;;0.80;0.68;;;;;;;4.10;100.00;99855.48;1743448;81;21113;-82
2022/04/12 11:49:39;;;;;;;0.62;0.62;;;;;;;4.08;100.00;99852.62;1673933;82;21858;-79
2022/04/12 11:52:10;;;;;;;1.65;1.17;;;;;;;4.03;100.00;99853.34;1685348;84;21052;-79
2022/04/12 11:54:41;;;;;;;1.12;1.02;;;;;;;4.03;100.00;99845.62;1681258;84;21150;-79